Time;durP1;ratioP1;P1;durP2;ratioP2;P2;SDS_P1;SDS_P2;PMS_P1;PMS_P2;Temp;Humidity;BMP_temperature;BMP_pressure;BME280_temperature;BME280_humidity;BME280_pressure;Samples;Min_cycle;Max_cycle;Signal;HPM_P1;HPM_P2
2023/08/10 00:00:17;;;;;;;7.50;5.10;;;;;;;18.00;70.57;100170.73;105821;1254;60077;-79
2023/08/10 00:02:45;;;;;;;11.80;5.60;;;;;;;18.03;70.50;100169.78;105819;1254;73475;-80
2023/08/10 00:05:12;;;;;;;8.30;4.90;;;;;;;18.07;70.46;100174.09;105800;1254;69960;-79
2023/08/10 00:07:40;;;;;;;10.10;5.40;;;;;;;18.05;70.73;100174.25;106101;1254;72719;-76
2023/08/10 00:10:08;;;;;;;12.80;6.10;;;;;;;18.02;70.83;100173.02;107826;1256;59309;-81
2023/08/10 00:12:37;;;;;;;8.20;5.50;;;;;;;18.00;71.21;100173.75;106994;1254;59570;-79
2023/08/10 00:15:08;;;;;;;6.90;5.20;;;;;;;17.97;71.43;100170.40;107755;1253;73040;-80
2023/08/10 00:17:35;;;;;;;6.90;4.70;;;;;;;17.95;71.46;100165.73;106692;1259;69074;-79
2023/08/10 00:20:10;;;;;;;7.30;5.30;;;;;;;17.92;71.46;100169.13;106123;1259;72446;-82
2023/08/10 00:22:38;;;;;;;7.40;5.10;;;;;;;17.90;71.52;100169.73;107778;1253;59706;-82
2023/08/10 00:25:07;;;;;;;10.60;5.10;;;;;;;17.96;71.63;100172.71;108854;1253;58735;-79
2023/08/10 00:27:38;;;;;;;7.20;4.90;;;;;;;18.02;71.97;100177.14;108307;1253;71951;-78
2023/08/10 00:30:08;;;;;;;7.70;5.30;;;;;;;17.99;72.36;100179.45;105994;1253;67745;-80
2023/08/10 00:32:36;;;;;;;8.40;4.70;;;;;;;17.95;72.55;100179.21;106027;1254;73177;-78
2023/08/10 00:35:04;;;;;;;9.30;6.00;;;;;;;17.86;72.61;100178.98;106073;1256;59713;-80
2023/08/10 00:37:33;;;;;;;8.80;5.50;;;;;;;17.75;72.91;100180.89;105897;1254;60030;-81
2023/08/10 00:40:00;;;;;;;9.50;5.40;;;;;;;17.60;73.40;100176.77;105959;1253;71757;-81
2023/08/10 00:42:27;;;;;;;7.90;5.20;;;;;;;17.46;73.79;100175.67;105912;1257;68796;-81
2023/08/10 00:44:55;;;;;;;9.10;4.80;;;;;;;17.44;73.84;100181.03;105858;1253;71401;-81
2023/08/10 00:47:22;;;;;;;5.90;4.80;;;;;;;17.42;74.26;100177.67;105881;1253;59621;-80
2023/08/10 00:49:50;;;;;;;10.10;5.80;;;;;;;17.31;74.50;100183.02;105705;1254;59542;-81
2023/08/10 00:52:17;;;;;;;9.90;5.90;;;;;;;17.15;75.02;100181.23;105961;1254;71757;-79
2023/08/10 00:54:44;;;;;;;9.00;5.20;;;;;;;17.02;75.74;100183.31;107607;1254;71071;-77
2023/08/10 00:57:12;;;;;;;9.50;6.10;;;;;;;16.94;76.13;100187.14;106331;1254;71335;-80
2023/08/10 00:59:39;;;;;;;7.20;4.90;;;;;;;16.92;76.65;100189.98;105907;1258;59911;-79
2023/08/10 01:02:07;;;;;;;6.40;4.60;;;;;;;16.97;76.86;100193.28;105545;1254;59698;-81
2023/08/10 01:04:35;;;;;;;8.50;5.10;;;;;;;17.04;76.84;100198.43;105680;1256;73568;-80
2023/08/10 01:07:07;;;;;;;10.40;5.40;;;;;;;17.03;76.90;100199.26;105757;1259;67850;-80
2023/08/10 01:09:54;;;;;;;10.60;5.70;;;;;;;16.94;76.93;100201.64;105719;1257;70454;-80
2023/08/10 01:12:33;;;;;;;8.50;5.00;;;;;;;16.85;77.24;100206.42;105636;1256;60084;-80
2023/08/10 01:15:19;;;;;;;9.20;6.20;;;;;;;16.72;77.61;100204.96;105957;1253;59514;-78
2023/08/10 01:17:57;;;;;;;7.40;5.40;;;;;;;16.59;78.16;100207.35;106047;1254;72971;-81
2023/08/10 01:20:25;;;;;;;7.20;4.90;;;;;;;16.58;78.35;100205.17;107543;1256;68920;-81
2023/08/10 01:23:22;;;;;;;8.60;5.60;;;;;;;16.59;78.55;100203.60;106410;1253;71460;-80
2023/08/10 01:25:50;;;;;;;8.20;5.50;;;;;;;16.53;78.92;100205.73;107275;1254;61049;-77
2023/08/10 01:28:17;;;;;;;7.60;5.60;;;;;;;16.48;79.17;100202.61;106814;1256;59772;-77
2023/08/10 01:30:45;;;;;;;12.30;6.00;;;;;;;16.46;79.49;100210.64;106643;1254;73072;-80
2023/08/10 01:33:13;;;;;;;7.10;5.20;;;;;;;16.44;79.78;100211.98;107695;1253;69009;-79
2023/08/10 01:35:40;;;;;;;6.50;4.70;;;;;;;16.52;79.73;100214.82;108637;1254;71256;-80
2023/08/10 01:38:08;;;;;;;7.70;5.30;;;;;;;16.64;79.66;100216.08;108009;1253;59713;-78
2023/08/10 01:40:35;;;;;;;6.60;5.60;;;;;;;16.66;79.83;100210.55;106029;1254;60755;-79
2023/08/10 01:43:03;;;;;;;9.70;6.10;;;;;;;16.66;79.69;100211.98;105761;1256;74258;-81
2023/08/10 01:45:31;;;;;;;8.80;5.90;;;;;;;16.65;79.67;100216.99;105924;1254;70180;-76
2023/08/10 01:48:09;;;;;;;7.90;5.70;;;;;;;16.63;79.51;100216.90;105725;1257;73019;-79
2023/08/10 01:50:40;;;;;;;6.50;4.80;;;;;;;16.65;79.57;100222.65;105715;1260;59946;-79
2023/08/10 01:53:09;;;;;;;9.80;5.20;;;;;;;16.69;79.67;100224.26;105858;1254;59936;-80
2023/08/10 01:55:37;;;;;;;7.80;5.90;;;;;;;16.68;79.94;100224.29;106097;1258;72998;-78
2023/08/10 01:58:05;;;;;;;8.30;6.20;;;;;;;16.64;79.91;100226.90;106588;1254;67755;-78
2023/08/10 02:00:33;;;;;;;7.60;5.10;;;;;;;16.59;80.01;100222.95;108522;1253;71441;-78
2023/08/10 02:03:01;;;;;;;8.40;5.70;;;;;;;16.55;80.26;100225.23;105903;1260;59612;-78
2023/08/10 02:05:28;;;;;;;7.10;5.10;;;;;;;16.59;80.08;100226.30;105853;1254;59627;-79
2023/08/10 02:07:56;;;;;;;8.00;5.20;;;;;;;16.61;79.81;100221.90;105753;1254;73194;-80
2023/08/10 02:10:23;;;;;;;10.90;5.90;;;;;;;16.55;79.91;100224.98;106188;1253;69017;-79
2023/08/10 02:12:51;;;;;;;9.10;6.20;;;;;;;16.47;80.31;100228.19;106954;1256;72052;-80
2023/08/10 02:15:18;;;;;;;7.10;5.80;;;;;;;16.44;80.66;100227.16;107105;1260;59762;-80
2023/08/10 02:17:46;;;;;;;9.30;6.10;;;;;;;16.43;80.79;100228.70;106141;1253;59746;-77
2023/08/10 02:20:13;;;;;;;9.60;5.90;;;;;;;16.49;80.44;100233.69;106501;1253;73089;-78
2023/08/10 02:22:45;;;;;;;10.00;5.90;;;;;;;16.47;80.15;100231.54;106702;1254;70019;-78
2023/08/10 02:25:12;;;;;;;8.50;6.10;;;;;;;16.38;80.27;100234.80;108469;1253;71215;-79
2023/08/10 02:27:40;;;;;;;9.20;5.50;;;;;;;16.29;80.69;100236.55;108881;1253;58766;-79
2023/08/10 02:30:08;;;;;;;8.20;6.20;;;;;;;16.19;80.94;100235.25;109033;1253;60314;-77
2023/08/10 02:32:36;;;;;;;9.40;6.30;;;;;;;16.11;81.21;100237.91;108857;1259;72565;-77
2023/08/10 02:35:04;;;;;;;9.70;5.60;;;;;;;16.15;81.32;100240.83;106189;1255;68700;-80
2023/08/10 02:37:35;;;;;;;9.90;6.40;;;;;;;16.23;81.55;100244.27;106185;1255;72490;-79
2023/08/10 02:40:12;;;;;;;11.70;6.10;;;;;;;16.25;81.67;100245.11;106536;1256;60581;-80
2023/08/10 02:42:40;;;;;;;9.80;6.10;;;;;;;16.22;81.61;100247.98;108237;1253;60137;-80
2023/08/10 02:45:08;;;;;;;10.10;6.60;;;;;;;16.19;81.53;100250.47;108950;1256;72663;-81
2023/08/10 02:47:36;;;;;;;11.50;6.90;;;;;;;16.17;81.58;100249.83;108548;1253;69558;-79
2023/08/10 02:50:07;;;;;;;9.80;6.40;;;;;;;16.25;81.58;100249.50;106254;1254;70292;-80
2023/08/10 02:52:35;;;;;;;10.60;6.70;;;;;;;16.35;81.49;100250.85;106307;1254;60527;-80
2023/08/10 02:55:03;;;;;;;9.50;6.40;;;;;;;16.31;81.41;100254.70;108071;1253;60342;-80
2023/08/10 02:57:31;;;;;;;10.00;6.90;;;;;;;16.21;81.51;100257.16;106776;1253;73963;-78
2023/08/10 02:59:58;;;;;;;9.30;6.00;;;;;;;16.15;82.03;100260.11;105814;1259;70267;-79
2023/08/10 03:02:28;;;;;;;9.60;6.90;;;;;;;16.12;82.09;100256.35;105539;1256;71415;-79
2023/08/10 03:04:56;;;;;;;13.40;6.40;;;;;;;16.20;81.95;100256.66;105796;1257;60435;-78
2023/08/10 03:07:23;;;;;;;12.00;6.90;;;;;;;16.23;81.79;100255.59;105871;1257;60543;-78
2023/08/10 03:09:51;;;;;;;9.30;7.60;;;;;;;16.18;82.07;100258.46;105853;1254;73870;-80
2023/08/10 03:12:21;;;;;;;8.70;6.60;;;;;;;16.13;82.24;100258.17;105935;1253;72685;-78
2023/08/10 03:14:49;;;;;;;10.80;6.80;;;;;;;16.06;82.30;100263.91;105814;1259;72937;-77
2023/08/10 03:17:17;;;;;;;10.10;6.80;;;;;;;16.02;82.73;100262.39;105802;1256;61834;-81
2023/08/10 03:19:44;;;;;;;12.10;6.40;;;;;;;16.10;82.97;100264.81;105895;1253;60639;-80
2023/08/10 03:22:12;;;;;;;9.80;6.70;;;;;;;16.19;83.00;100266.36;105950;1254;72589;-79
2023/08/10 03:24:40;;;;;;;9.50;6.20;;;;;;;16.22;82.98;100270.33;107463;1254;69344;-78
2023/08/10 03:27:08;;;;;;;11.00;7.50;;;;;;;16.20;83.07;100268.42;107453;1254;71736;-78
2023/08/10 03:29:35;;;;;;;11.30;6.40;;;;;;;16.19;83.07;100271.45;105893;1253;60551;-77
2023/08/10 03:32:04;;;;;;;8.50;6.10;;;;;;;16.18;83.28;100272.58;105824;1256;60418;-80
2023/08/10 03:34:32;;;;;;;6.90;6.20;;;;;;;16.32;83.52;100273.31;107833;1253;72917;-79
2023/08/10 03:37:00;;;;;;;9.60;6.60;;;;;;;16.45;83.16;100268.67;107696;1254;68735;-81
2023/08/10 03:39:27;;;;;;;11.30;7.70;;;;;;;16.49;83.03;100264.27;106123;1253;71050;-79
2023/08/10 03:41:55;;;;;;;10.20;7.20;;;;;;;16.49;82.93;100264.84;106039;1259;60323;-81
2023/08/10 03:44:22;;;;;;;10.20;7.40;;;;;;;16.46;83.01;100267.13;106051;1253;60659;-81
2023/08/10 03:46:53;;;;;;;10.70;6.90;;;;;;;16.46;83.20;100266.21;106410;1253;72634;-80
2023/08/10 03:49:22;;;;;;;10.20;6.20;;;;;;;16.58;83.02;100270.09;108103;1255;68695;-78
2023/08/10 03:51:50;;;;;;;9.30;6.10;;;;;;;16.66;82.64;100277.02;107010;1253;72767;-76
2023/08/10 03:54:18;;;;;;;13.00;7.00;;;;;;;16.69;82.60;100279.73;107466;1254;60562;-77
2023/08/10 03:56:45;;;;;;;9.80;7.30;;;;;;;16.70;82.75;100275.31;107820;1254;60312;-75
2023/08/10 03:59:13;;;;;;;12.00;7.10;;;;;;;16.73;82.87;100277.44;107954;1253;73790;-78
2023/08/10 04:01:41;;;;;;;8.30;6.80;;;;;;;16.80;82.79;100279.28;108102;1253;69174;-81
2023/08/10 04:04:09;;;;;;;11.60;6.60;;;;;;;16.95;82.41;100278.49;107608;1254;71221;-78
2023/08/10 04:06:37;;;;;;;11.00;6.90;;;;;;;17.06;82.11;100276.79;108514;1253;59032;-81
2023/08/10 04:09:04;;;;;;;9.50;6.60;;;;;;;17.13;82.37;100276.73;107522;1254;60354;-81
2023/08/10 04:11:32;;;;;;;10.80;6.60;;;;;;;17.25;82.80;100278.40;106123;1258;72636;-82
2023/08/10 04:14:00;;;;;;;9.80;7.00;;;;;;;17.40;82.91;100275.39;107209;1254;69054;-81
2023/08/10 04:16:28;;;;;;;10.60;6.20;;;;;;;17.56;82.09;100275.04;108465;1254;72676;-83
2023/08/10 04:18:56;;;;;;;12.80;7.10;;;;;;;17.78;81.29;100272.59;106509;1257;60438;-82
2023/08/10 04:21:24;;;;;;;12.50;6.80;;;;;;;18.03;80.84;100275.62;106067;1256;60316;-82
2023/08/10 04:23:52;;;;;;;10.30;7.40;;;;;;;18.19;80.09;100276.22;106932;1254;73948;-82
2023/08/10 04:26:20;;;;;;;9.80;6.90;;;;;;;18.31;79.66;100275.82;106902;1256;71061;-79
2023/08/10 04:28:47;;;;;;;12.30;7.00;;;;;;;18.41;79.67;100280.21;106258;1259;71502;-80
2023/08/10 04:31:15;;;;;;;11.10;7.40;;;;;;;18.53;79.41;100279.43;106130;1260;60534;-80
2023/08/10 04:33:42;;;;;;;9.40;6.60;;;;;;;18.64;79.00;100278.15;106251;1253;60368;-82
2023/08/10 04:36:10;;;;;;;8.20;6.60;;;;;;;18.88;78.20;100275.25;106026;1259;73868;-81
2023/08/10 04:38:37;;;;;;;11.00;6.50;;;;;;;19.22;78.03;100278.83;105900;1253;70780;-81
2023/08/10 04:41:04;;;;;;;9.40;7.20;;;;;;;19.45;77.03;100278.41;105892;1256;71445;-79
2023/08/10 04:43:32;;;;;;;9.00;7.00;;;;;;;19.55;76.13;100281.48;105914;1259;60514;-81
2023/08/10 04:45:59;;;;;;;12.60;7.50;;;;;;;19.59;75.58;100277.31;106118;1256;60562;-80
2023/08/10 04:48:27;;;;;;;11.10;7.70;;;;;;;19.67;75.67;100275.44;105993;1258;73803;-81
2023/08/10 04:50:54;;;;;;;10.30;7.00;;;;;;;19.82;75.13;100277.05;106081;1254;70154;-80
2023/08/10 04:53:22;;;;;;;11.30;7.70;;;;;;;20.05;74.69;100276.46;106760;1256;71685;-82
2023/08/10 04:55:51;;;;;;;12.70;7.80;;;;;;;20.25;73.64;100278.10;108289;1257;60355;-81
2023/08/10 04:58:18;;;;;;;11.30;7.10;;;;;;;20.39;72.53;100279.09;106870;1257;60457;-79
2023/08/10 05:00:46;;;;;;;12.10;7.30;;;;;;;20.53;71.70;100274.66;107880;1255;73986;-82
2023/08/10 05:03:14;;;;;;;11.30;7.30;;;;;;;20.63;71.22;100281.59;109066;1253;71092;-83
2023/08/10 05:05:44;;;;;;;12.20;7.20;;;;;;;20.73;70.45;100282.16;108438;1254;72353;-80
2023/08/10 05:08:11;;;;;;;11.50;7.70;;;;;;;20.79;69.70;100285.59;106054;1259;60926;-82
2023/08/10 05:10:43;;;;;;;11.50;7.00;;;;;;;20.80;69.33;100284.71;106015;1259;60403;-80
2023/08/10 05:13:10;;;;;;;10.70;7.70;;;;;;;20.82;68.93;100288.55;106173;1253;72575;-84
2023/08/10 05:15:38;;;;;;;10.20;7.10;;;;;;;20.85;68.88;100286.87;106403;1253;70139;-82
2023/08/10 05:18:05;;;;;;;10.20;7.60;;;;;;;20.90;68.57;100286.02;106047;1257;72599;-84
2023/08/10 05:20:33;;;;;;;10.20;6.20;;;;;;;20.94;68.08;100285.87;105907;1253;60578;-81
2023/08/10 05:23:00;;;;;;;7.10;6.00;;;;;;;20.98;66.86;100286.89;107416;1253;60802;-83
2023/08/10 05:25:28;;;;;;;8.30;6.20;;;;;;;21.00;66.17;100286.59;107963;1253;71633;-80
2023/08/10 05:27:55;;;;;;;5.40;4.60;;;;;;;21.04;65.25;100290.02;107333;1256;69243;-83
2023/08/10 05:30:23;;;;;;;10.90;4.80;;;;;;;21.04;63.39;100291.43;106131;1256;72731;-82
2023/08/10 05:32:50;;;;;;;6.10;3.90;;;;;;;21.04;62.43;100288.84;106196;1253;60514;-81
2023/08/10 05:35:18;;;;;;;5.20;3.70;;;;;;;21.04;61.24;100291.23;107421;1253;60373;-80
2023/08/10 05:37:45;;;;;;;5.30;3.60;;;;;;;21.04;59.30;100292.84;107681;1256;72626;-80
2023/08/10 05:40:12;;;;;;;5.90;3.20;;;;;;;21.02;57.56;100291.80;107896;1254;68964;-79
2023/08/10 05:42:41;;;;;;;3.60;3.20;;;;;;;21.03;57.32;100292.71;106650;1256;71417;-79
2023/08/10 05:45:09;;;;;;;3.60;2.90;;;;;;;21.08;56.83;100293.53;106201;1254;61027;-80
2023/08/10 05:47:36;;;;;;;6.50;2.90;;;;;;;21.14;56.48;100295.34;106445;1254;60501;-80
2023/08/10 05:50:05;;;;;;;7.40;3.40;;;;;;;21.19;56.44;100296.33;106186;1253;73935;-81
2023/08/10 05:52:32;;;;;;;4.80;3.40;;;;;;;21.23;55.83;100291.63;106493;1254;68987;-78
2023/08/10 05:55:00;;;;;;;6.90;3.60;;;;;;;21.26;55.92;100293.50;106051;1259;70617;-78
2023/08/10 05:57:27;;;;;;;4.30;3.60;;;;;;;21.30;56.59;100293.79;105905;1256;61301;-81
2023/08/10 05:59:55;;;;;;;5.20;3.60;;;;;;;21.35;56.75;100296.84;105888;1253;60576;-80
2023/08/10 06:02:23;;;;;;;5.90;3.90;;;;;;;21.42;56.79;100297.33;105923;1253;72167;-78
2023/08/10 06:04:52;;;;;;;6.50;3.60;;;;;;;21.47;56.50;100297.70;106097;1259;71056;-79
2023/08/10 06:07:19;;;;;;;5.20;3.50;;;;;;;21.51;56.57;100302.89;105995;1254;71413;-80
2023/08/10 06:09:47;;;;;;;6.40;3.80;;;;;;;21.54;56.67;100304.02;106614;1259;59979;-79
2023/08/10 06:12:16;;;;;;;5.10;3.60;;;;;;;21.60;56.42;100301.00;106890;1254;60405;-80
2023/08/10 06:14:45;;;;;;;8.60;4.30;;;;;;;21.66;55.96;100301.54;106827;1254;73826;-80
2023/08/10 06:17:13;;;;;;;8.60;4.60;;;;;;;21.72;55.84;100305.87;107269;1259;68720;-80
2023/08/10 06:19:40;;;;;;;7.40;3.80;;;;;;;21.77;55.34;100306.14;106056;1254;71382;-80
2023/08/10 06:22:07;;;;;;;4.70;3.50;;;;;;;21.81;54.75;100303.46;106082;1253;60552;-80
2023/08/10 06:24:35;;;;;;;5.10;3.90;;;;;;;21.85;54.72;100305.04;106431;1253;60546;-80
2023/08/10 06:27:03;;;;;;;7.40;3.70;;;;;;;21.89;54.38;100296.41;106539;1257;73837;-80
2023/08/10 06:29:31;;;;;;;4.80;3.50;;;;;;;21.93;53.95;100297.08;105949;1259;68706;-79
2023/08/10 06:31:58;;;;;;;4.40;3.10;;;;;;;21.96;53.79;100295.39;105861;1254;71360;-79
2023/08/10 06:34:26;;;;;;;9.30;3.40;;;;;;;22.00;53.32;100294.84;105812;1256;60456;-79
2023/08/10 06:36:53;;;;;;;6.10;3.40;;;;;;;22.05;52.80;100293.61;105929;1255;60542;-76
2023/08/10 06:39:21;;;;;;;5.50;3.00;;;;;;;22.10;52.62;100294.46;105565;1256;73843;-80
2023/08/10 06:41:49;;;;;;;5.70;3.60;;;;;;;22.16;52.51;100294.33;105716;1259;68724;-79
2023/08/10 06:44:19;;;;;;;6.20;3.20;;;;;;;22.19;51.63;100289.65;105775;1257;72737;-79
2023/08/10 06:46:46;;;;;;;3.50;2.60;;;;;;;22.23;51.28;100290.57;105911;1254;60537;-80
2023/08/10 06:49:16;;;;;;;7.10;3.70;;;;;;;22.27;50.94;100290.95;105802;1259;60544;-79
2023/08/10 06:51:44;;;;;;;6.10;3.40;;;;;;;22.30;51.36;100292.98;105868;1253;73442;-81
2023/08/10 06:54:11;;;;;;;6.60;3.30;;;;;;;22.33;50.84;100292.42;105860;1259;69288;-79
2023/08/10 06:56:39;;;;;;;5.70;3.20;;;;;;;22.37;50.34;100291.16;106717;1256;72730;-79
2023/08/10 06:59:07;;;;;;;7.00;3.20;;;;;;;22.38;50.02;100296.27;107270;1254;60399;-80
2023/08/10 07:01:37;;;;;;;6.60;3.90;;;;;;;22.41;49.94;100294.50;105884;1253;60499;-80
2023/08/10 07:04:05;;;;;;;4.40;3.20;;;;;;;22.45;50.29;100288.87;105836;1259;72570;-80
2023/08/10 07:06:33;;;;;;;9.20;3.80;;;;;;;22.50;50.92;100288.16;105759;1259;69011;-80
2023/08/10 07:09:00;;;;;;;6.50;3.20;;;;;;;22.54;50.92;100290.55;105715;1257;73040;-78
2023/08/10 07:11:28;;;;;;;5.50;3.60;;;;;;;22.57;50.47;100290.52;105752;1254;60421;-80
2023/08/10 07:13:55;;;;;;;8.20;3.80;;;;;;;22.59;50.44;100290.23;105910;1254;60552;-79
2023/08/10 07:16:23;;;;;;;9.20;3.60;;;;;;;22.64;50.59;100287.85;105915;1253;73785;-80
2023/08/10 07:18:51;;;;;;;7.00;3.70;;;;;;;22.68;50.38;100284.33;106169;1259;68863;-79
2023/08/10 07:21:20;;;;;;;7.40;3.30;;;;;;;22.73;50.39;100284.80;106971;1256;72724;-78
2023/08/10 07:23:48;;;;;;;8.10;4.00;;;;;;;22.79;50.01;100283.92;108174;1253;59168;-78
2023/08/10 07:26:15;;;;;;;6.20;3.60;;;;;;;22.85;49.72;100284.11;108055;1253;60540;-79
2023/08/10 07:28:43;;;;;;;4.40;3.60;;;;;;;22.89;49.66;100289.32;108677;1258;72576;-78
2023/08/10 07:31:11;;;;;;;6.90;3.60;;;;;;;22.94;49.46;100288.77;106941;1259;71327;-80
2023/08/10 07:33:39;;;;;;;3.10;2.80;;;;;;;23.00;49.13;100285.92;106153;1259;71323;-82
2023/08/10 07:36:07;;;;;;;6.00;3.10;;;;;;;23.04;48.94;100288.04;106131;1257;61141;-81
2023/08/10 07:38:35;;;;;;;4.30;3.40;;;;;;;23.09;48.82;100286.69;106851;1253;60329;-81
2023/08/10 07:41:02;;;;;;;5.30;3.30;;;;;;;23.15;48.32;100285.20;107841;1259;72666;-81
2023/08/10 07:43:29;;;;;;;3.50;2.90;;;;;;;23.21;48.35;100290.05;106571;1259;68596;-82
2023/08/10 07:45:57;;;;;;;4.60;3.10;;;;;;;23.29;47.79;100289.98;106015;1257;72817;-82
2023/08/10 07:48:24;;;;;;;3.50;2.80;;;;;;;23.36;47.26;100287.09;105852;1253;60553;-80
2023/08/10 07:50:52;;;;;;;7.10;3.60;;;;;;;23.43;47.27;100289.67;105787;1259;60497;-78
2023/08/10 07:53:20;;;;;;;7.00;3.20;;;;;;;23.49;47.00;100291.05;105610;1253;73820;-80
2023/08/10 07:55:47;;;;;;;5.40;2.90;;;;;;;23.54;46.69;100289.42;105878;1254;68790;-78
2023/08/10 07:58:15;;;;;;;3.50;2.90;;;;;;;23.58;46.67;100285.21;105797;1254;72140;-80
2023/08/10 08:00:43;;;;;;;4.00;3.10;;;;;;;23.62;46.60;100282.52;105968;1255;60642;-81
2023/08/10 08:03:11;;;;;;;3.40;2.60;;;;;;;23.63;46.62;100280.70;105857;1258;60447;-80
2023/08/10 08:05:40;;;;;;;5.10;3.10;;;;;;;23.67;46.52;100279.86;106003;1254;72585;-79
2023/08/10 08:08:08;;;;;;;6.20;3.60;;;;;;;23.75;46.50;100280.19;106115;1258;68990;-81
2023/08/10 08:10:36;;;;;;;5.70;3.40;;;;;;;23.86;46.45;100280.30;106533;1254;71277;-80
2023/08/10 08:13:06;;;;;;;4.40;3.10;;;;;;;24.02;46.46;100277.94;106682;1253;60347;-78
2023/08/10 08:15:34;;;;;;;3.50;3.10;;;;;;;24.22;46.46;100275.52;107809;1254;60341;-79
2023/08/10 08:18:40;;;;;;;4.90;3.40;;;;;;;24.44;46.35;100278.38;107528;1255;72894;-75
2023/08/10 08:21:09;;;;;;;5.40;2.90;;;;;;;24.71;45.40;100277.13;107859;1259;69488;-79
2023/08/10 08:23:36;;;;;;;5.30;3.30;;;;;;;24.87;44.46;100276.07;108043;1256;71353;-81
2023/08/10 08:26:04;;;;;;;5.50;2.70;;;;;;;24.97;44.34;100274.86;107197;1257;60421;-78
2023/08/10 08:28:31;;;;;;;5.90;2.90;;;;;;;25.09;43.77;100271.86;106643;1256;60550;-79
2023/08/10 08:30:59;;;;;;;4.70;2.90;;;;;;;25.21;43.37;100263.10;107616;1253;72621;-78
2023/08/10 08:33:26;;;;;;;3.40;2.60;;;;;;;25.30;43.40;100268.14;106255;1253;68782;-76
2023/08/10 08:35:54;;;;;;;4.50;3.00;;;;;;;25.41;43.01;100262.98;105845;1254;71498;-76
2023/08/10 08:38:21;;;;;;;3.30;2.70;;;;;;;25.54;43.16;100264.34;105853;1259;60484;-79
2023/08/10 08:40:49;;;;;;;4.40;3.40;;;;;;;25.72;42.96;100265.30;106172;1259;60448;-77
2023/08/10 08:43:17;;;;;;;3.60;2.70;;;;;;;25.88;42.25;100262.21;105960;1259;71694;-79
2023/08/10 08:45:45;;;;;;;4.50;3.00;;;;;;;26.03;41.81;100263.36;105847;1254;71235;-80
2023/08/10 08:48:16;;;;;;;3.20;2.70;;;;;;;26.18;41.30;100265.94;105853;1259;72498;-77
2023/08/10 08:50:45;;;;;;;5.60;3.00;;;;;;;26.30;41.10;100267.24;106013;1254;60589;-79
2023/08/10 08:53:12;;;;;;;4.10;2.60;;;;;;;26.44;41.08;100262.45;106358;1253;60553;-80
2023/08/10 08:55:40;;;;;;;3.90;2.90;;;;;;;26.62;40.79;100257.32;106828;1253;74545;-79
2023/08/10 08:58:07;;;;;;;3.50;2.80;;;;;;;26.74;40.35;100261.11;107797;1253;69026;-79
2023/08/10 09:00:35;;;;;;;4.30;3.00;;;;;;;26.77;40.23;100255.30;106121;1254;72493;-78
2023/08/10 09:03:02;;;;;;;5.30;3.00;;;;;;;26.76;40.07;100252.34;105989;1259;60486;-80
2023/08/10 09:05:30;;;;;;;3.60;3.00;;;;;;;26.77;39.84;100253.34;105879;1260;60423;-77
2023/08/10 09:07:58;;;;;;;4.60;3.30;;;;;;;26.79;39.67;100248.44;106073;1254;74365;-80
2023/08/10 09:10:26;;;;;;;3.20;2.80;;;;;;;26.91;39.83;100248.45;105819;1254;70297;-80
2023/08/10 09:12:53;;;;;;;4.50;3.10;;;;;;;27.09;39.44;100251.44;105987;1254;74673;-79
2023/08/10 09:15:21;;;;;;;5.80;3.20;;;;;;;27.22;39.15;100246.98;106531;1260;60351;-80
2023/08/10 09:17:52;;;;;;;3.30;2.80;;;;;;;27.40;38.86;100247.66;108027;1256;60670;-80
2023/08/10 09:20:21;;;;;;;5.60;3.30;;;;;;;27.51;38.72;100240.28;107481;1253;72722;-80
2023/08/10 09:22:50;;;;;;;4.40;2.80;;;;;;;27.61;38.88;100236.09;106705;1256;68864;-79
2023/08/10 09:25:18;;;;;;;2.60;2.40;;;;;;;27.89;39.06;100234.15;107430;1253;72293;-79
2023/08/10 09:27:47;;;;;;;3.00;2.30;;;;;;;28.41;38.49;100236.73;107865;1254;60610;-80
2023/08/10 09:30:16;;;;;;;5.60;3.30;;;;;;;29.07;37.76;100235.63;106364;1254;60546;-81
2023/08/10 09:32:43;;;;;;;4.90;3.10;;;;;;;29.80;36.81;100240.37;106066;1256;72628;-80
2023/08/10 09:35:12;;;;;;;4.20;2.40;;;;;;;30.54;36.03;100233.70;105877;1257;70332;-80
2023/08/10 09:37:40;;;;;;;5.10;3.00;;;;;;;31.25;35.16;100233.55;106389;1255;72686;-81
2023/08/10 09:40:10;;;;;;;3.10;2.70;;;;;;;31.85;34.40;100228.21;106643;1256;60505;-80
2023/08/10 09:42:41;;;;;;;3.00;2.60;;;;;;;32.21;33.44;100228.54;107986;1259;59965;-80
2023/08/10 09:45:10;;;;;;;3.80;3.00;;;;;;;32.40;33.26;100232.23;107909;1259;73906;-80
2023/08/10 09:47:39;;;;;;;2.90;2.40;;;;;;;32.54;32.77;100231.47;107591;1254;68735;-81
2023/08/10 09:50:12;;;;;;;3.00;2.60;;;;;;;32.57;32.74;100238.85;106269;1259;72738;-82
2023/08/10 09:52:40;;;;;;;2.90;2.60;;;;;;;32.42;32.57;100242.80;106325;1254;60623;-80
2023/08/10 09:55:08;;;;;;;2.90;2.70;;;;;;;32.11;32.76;100241.06;106079;1259;60930;-80
2023/08/10 09:57:40;;;;;;;3.80;2.70;;;;;;;31.83;32.79;100239.98;106185;1255;73836;-81
2023/08/10 10:00:17;;;;;;;4.30;2.80;;;;;;;31.46;33.21;100238.04;106486;1259;70623;-82
2023/08/10 10:02:46;;;;;;;2.60;2.40;;;;;;;31.01;33.50;100240.80;107690;1254;71345;-78
2023/08/10 10:05:19;;;;;;;3.20;2.90;;;;;;;30.75;33.67;100240.46;106285;1254;60467;-79
2023/08/10 10:07:49;;;;;;;3.60;2.80;;;;;;;30.56;33.74;100237.48;105952;1260;60976;-79
2023/08/10 10:10:17;;;;;;;4.30;2.90;;;;;;;30.40;34.05;100240.54;105737;1260;73965;-80
2023/08/10 10:12:47;;;;;;;3.50;2.40;;;;;;;30.27;34.36;100241.02;105958;1253;70680;-80
2023/08/10 10:15:15;;;;;;;3.50;3.10;;;;;;;30.22;34.33;100241.12;105591;1256;72654;-79
2023/08/10 10:17:43;;;;;;;3.60;2.80;;;;;;;30.22;34.37;100238.75;105918;1259;60524;-78
2023/08/10 10:20:11;;;;;;;3.20;2.80;;;;;;;30.29;34.55;100231.63;105988;1262;60358;-78
2023/08/10 10:22:39;;;;;;;3.60;2.50;;;;;;;30.35;34.12;100227.70;105916;1256;73803;-80
2023/08/10 10:25:15;;;;;;;2.80;2.50;;;;;;;30.41;34.09;100232.02;106490;1254;70187;-77
2023/08/10 10:27:46;;;;;;;3.70;2.80;;;;;;;30.50;33.89;100225.98;107988;1257;71378;-78
2023/08/10 10:30:16;;;;;;;3.30;2.80;;;;;;;30.79;33.91;100220.57;107174;1256;745080;-81
2023/08/10 10:34:54;;;;;;;3.30;2.60;;;;;;;31.46;33.05;100212.56;102647;1291;600605;-81
2023/08/10 10:37:27;;;;;;;3.30;2.30;;;;;;;31.81;33.04;100213.92;105242;1266;59370;-80
2023/08/10 10:40:12;;;;;;;2.80;2.40;;;;;;;32.06;32.86;100216.96;105098;1267;60301;-79
2023/08/10 10:43:08;;;;;;;3.90;2.60;;;;;;;32.13;32.34;100217.94;105552;1264;72149;-79
2023/08/10 10:45:42;;;;;;;3.90;3.10;;;;;;;32.02;32.37;100209.45;106328;1260;70338;-80
2023/08/10 10:48:12;;;;;;;4.40;2.70;;;;;;;31.92;32.84;100205.79;105843;1262;192708;-76
2023/08/10 10:50:39;;;;;;;3.70;2.80;;;;;;;31.85;32.98;100210.34;105621;1259;60687;-76
2023/08/10 10:53:13;;;;;;;3.40;3.00;;;;;;;31.75;32.91;100205.56;105730;1257;59328;-77
2023/08/10 10:55:42;;;;;;;3.80;2.80;;;;;;;31.71;33.08;100202.77;105686;1261;71091;-76
2023/08/10 10:58:13;;;;;;;4.90;3.30;;;;;;;31.71;32.85;100196.84;105588;1258;68383;-75
2023/08/10 11:00:40;;;;;;;3.00;2.70;;;;;;;31.70;32.94;100198.22;105531;1254;72483;-75
2023/08/10 11:03:08;;;;;;;3.10;2.60;;;;;;;31.75;32.86;100199.14;105709;1254;60167;-75
2023/08/10 11:05:35;;;;;;;2.90;2.70;;;;;;;31.85;32.67;100201.16;105982;1252;60100;-76
2023/08/10 11:08:08;;;;;;;3.00;2.70;;;;;;;32.03;32.59;100197.71;106358;1253;71546;-76
2023/08/10 11:10:36;;;;;;;3.00;2.70;;;;;;;32.24;31.86;100194.23;106036;1253;70345;-76
2023/08/10 11:13:11;;;;;;;3.40;3.10;;;;;;;32.43;31.73;100190.92;105899;1253;72438;-77
2023/08/10 11:15:38;;;;;;;2.70;2.50;;;;;;;32.69;31.61;100187.85;105892;1253;60360;-77
2023/08/10 11:18:11;;;;;;;3.00;2.80;;;;;;;33.00;31.47;100187.95;106091;1256;59642;-76
2023/08/10 11:20:44;;;;;;;2.80;2.50;;;;;;;33.45;30.82;100186.09;105862;1253;72818;-76
2023/08/10 11:23:12;;;;;;;4.40;2.50;;;;;;;33.95;30.42;100180.63;105989;1253;70494;-77